Time;durP1;ratioP1;P1;durP2;ratioP2;P2;SDS_P1;SDS_P2;PMS_P1;PMS_P2;Temp;Humidity;BMP_temperature;BMP_pressure;BME280_temperature;BME280_humidity;BME280_pressure;Samples;Min_cycle;Max_cycle;Signal;HPM_P1;HPM_P2
2021/08/08 00:02:17;;;;;;;31.52;23.20;;;13.80;87.70;;;;;;5057025;28;20024;-71
2021/08/08 00:04:43;;;;;;;34.60;23.88;;;13.80;87.80;;;;;;5055557;28;20029;-71
2021/08/08 00:07:10;;;;;;;29.27;21.77;;;13.80;87.90;;;;;;5058413;28;20016;-71
2021/08/08 00:09:36;;;;;;;31.25;22.02;;;13.80;87.90;;;;;;5057866;28;20062;-70
2021/08/08 00:12:03;;;;;;;30.10;21.17;;;13.80;88.00;;;;;;5055380;28;20025;-72
2021/08/08 00:14:29;;;;;;;33.33;22.17;;;13.80;87.80;;;;;;5054533;28;20036;-72
2021/08/08 00:16:56;;;;;;;34.75;23.92;;;13.80;87.80;;;;;;5059349;28;20075;-72
2021/08/08 00:19:22;;;;;;;37.45;25.65;;;13.70;87.70;;;;;;5059390;28;20017;-72
2021/08/08 00:21:49;;;;;;;37.80;25.95;;;13.60;88.00;;;;;;5058010;28;20033;-71
2021/08/08 00:24:55;;;;;;;36.95;24.40;;;13.60;88.20;;;;;;5061154;28;20028;-71
2021/08/08 00:28:01;;;;;;;38.00;24.25;;;13.70;88.40;;;;;;5056461;28;20454;-71
2021/08/08 00:31:07;;;;;;;33.38;23.67;;;13.70;88.50;;;;;;5056175;28;20021;-72
2021/08/08 00:34:13;;;;;;;41.38;23.00;;;13.60;88.40;;;;;;5059049;28;20044;-71
2021/08/08 00:37:19;;;;;;;40.42;24.35;;;13.60;88.40;;;;;;5056041;28;20120;-71
2021/08/08 00:40:25;;;;;;;34.90;23.10;;;13.70;88.20;;;;;;5061728;28;20024;-71
2021/08/08 00:42:52;;;;;;;35.53;24.35;;;13.70;88.20;;;;;;5061977;28;20047;-71
2021/08/08 00:45:20;;;;;;;35.28;23.60;;;13.60;88.10;;;;;;5053838;28;20096;-71
2021/08/08 00:47:47;;;;;;;35.45;25.40;;;13.60;88.00;;;;;;5060085;28;20440;-71
2021/08/08 00:50:15;;;;;;;32.45;23.35;;;13.60;88.20;;;;;;5049910;28;20490;-71
2021/08/08 00:52:42;;;;;;;37.95;24.90;;;13.60;88.30;;;;;;5054979;28;20086;-71
2021/08/08 00:55:11;;;;;;;39.58;26.23;;;13.60;88.40;;;;;;5054266;28;20049;-71
2021/08/08 00:57:38;;;;;;;39.40;26.70;;;13.60;88.50;;;;;;5059814;28;20169;-71
2021/08/08 01:00:07;;;;;;;38.92;27.08;;;13.60;88.60;;;;;;5050443;28;20017;-71
2021/08/08 01:02:38;;;;;;;36.92;25.40;;;13.60;88.70;;;;;;5060277;28;20024;-71
2021/08/08 01:05:21;;;;;;;36.40;24.67;;;13.60;88.60;;;;;;5061015;28;20024;-69
2021/08/08 01:08:36;;;;;;;42.80;27.88;;;13.60;88.50;;;;;;5056681;28;20535;-69
2021/08/08 01:11:03;;;;;;;45.13;27.02;;;13.60;88.30;;;;;;5052959;28;20043;-71
2021/08/08 01:13:32;;;;;;;41.70;29.85;;;13.50;88.90;;;;;;5055594;28;20131;-71
2021/08/08 01:15:59;;;;;;;49.58;29.67;;;13.50;88.30;;;;;;5058352;28;20035;-71
2021/08/08 01:18:27;;;;;;;53.35;31.20;;;13.50;88.30;;;;;;5055492;28;20033;-70
2021/08/08 01:20:53;;;;;;;52.17;31.67;;;13.50;88.40;;;;;;5055968;28;20028;-71
2021/08/08 01:23:24;;;;;;;51.53;31.20;;;13.50;88.50;;;;;;5056045;28;20547;-71
2021/08/08 01:25:51;;;;;;;49.50;29.75;;;13.50;88.70;;;;;;5053448;28;20096;-71
2021/08/08 01:28:17;;;;;;;46.35;30.50;;;13.50;88.90;;;;;;5060607;28;20116;-71
2021/08/08 01:30:44;;;;;;;45.60;27.55;;;13.60;88.80;;;;;;5052942;28;20104;-72
2021/08/08 01:33:12;;;;;;;46.63;27.42;;;13.60;88.80;;;;;;5061057;28;20028;-71
2021/08/08 01:35:38;;;;;;;55.33;32.20;;;13.50;88.30;;;;;;5054464;28;20534;-71
2021/08/08 01:38:06;;;;;;;50.95;30.15;;;13.50;88.00;;;;;;5055813;28;20023;-71
2021/08/08 01:40:51;;;;;;;57.25;32.03;;;13.50;87.90;;;;;;5058993;28;20028;-71
2021/08/08 01:43:25;;;;;;;59.25;34.83;;;13.50;87.90;;;;;;5057388;28;20397;-71
2021/08/08 01:45:54;;;;;;;57.90;32.20;;;13.50;88.10;;;;;;5059650;28;20024;-71
2021/08/08 01:48:22;;;;;;;54.13;31.60;;;13.50;88.10;;;;;;5054836;28;20064;-71
2021/08/08 01:50:49;;;;;;;54.42;33.70;;;13.50;88.10;;;;;;5055629;28;20029;-71
2021/08/08 01:53:16;;;;;;;54.72;31.20;;;13.50;88.00;;;;;;5056364;28;20021;-71
2021/08/08 01:55:42;;;;;;;57.70;32.00;;;13.50;88.00;;;;;;5050583;28;20399;-71
2021/08/08 01:58:09;;;;;;;55.85;33.40;;;13.50;88.00;;;;;;5056791;28;20024;-71
2021/08/08 02:00:36;;;;;;;57.40;32.22;;;13.40;87.90;;;;;;5056983;28;20422;-71
2021/08/08 02:03:02;;;;;;;59.08;32.10;;;13.40;87.90;;;;;;5059730;28;20047;-70
2021/08/08 02:05:31;;;;;;;65.85;32.30;;;13.40;88.10;;;;;;5053686;28;20448;-70
2021/08/08 02:07:58;;;;;;;64.47;32.90;;;13.40;88.20;;;;;;5056177;28;20378;-70
2021/08/08 02:10:24;;;;;;;57.10;32.05;;;13.40;88.20;;;;;;5051915;28;20032;-70
2021/08/08 02:12:51;;;;;;;65.25;32.25;;;13.30;88.20;;;;;;5055849;28;20052;-70
2021/08/08 02:15:17;;;;;;;55.95;30.88;;;13.30;88.40;;;;;;5057029;28;20036;-70
2021/08/08 02:17:44;;;;;;;53.17;30.00;;;13.30;88.40;;;;;;5055081;28;20012;-70
2021/08/08 02:20:15;;;;;;;58.95;33.22;;;13.30;88.10;;;;;;5055201;28;20029;-70
2021/08/08 02:22:42;;;;;;;52.88;31.75;;;13.30;87.90;;;;;;5060458;28;20035;-70
2021/08/08 02:25:09;;;;;;;61.42;31.30;;;13.30;88.00;;;;;;5055895;28;20336;-70
2021/08/08 02:27:36;;;;;;;63.85;32.30;;;13.30;88.20;;;;;;5056150;28;20056;-69
2021/08/08 02:30:06;;;;;;;58.83;30.92;;;13.30;88.00;;;;;;5060985;28;20484;-70
2021/08/08 02:32:32;;;;;;;56.25;30.20;;;13.20;88.10;;;;;;5063089;28;20032;-69
2021/08/08 02:34:59;;;;;;;55.55;30.65;;;13.20;88.10;;;;;;5058494;28;20512;-70
2021/08/08 02:37:25;;;;;;;52.35;30.17;;;13.20;88.10;;;;;;5060659;28;20048;-69
2021/08/08 02:39:52;;;;;;;55.20;32.05;;;13.10;88.00;;;;;;5058743;28;20088;-70
2021/08/08 02:42:18;;;;;;;53.55;31.52;;;13.10;88.30;;;;;;5059777;28;20432;-70
2021/08/08 02:44:45;;;;;;;52.05;28.15;;;13.10;88.40;;;;;;5058236;28;20098;-70
2021/08/08 02:47:11;;;;;;;55.38;30.45;;;13.10;88.50;;;;;;5057605;28;20055;-70
2021/08/08 02:49:38;;;;;;;54.63;31.38;;;13.10;88.50;;;;;;5060193;28;20020;-70
2021/08/08 02:52:04;;;;;;;49.83;31.13;;;13.00;88.60;;;;;;5056034;28;20491;-72
2021/08/08 02:54:31;;;;;;;51.63;31.08;;;13.00;88.70;;;;;;5053849;28;20492;-69
2021/08/08 02:56:58;;;;;;;61.67;32.13;;;13.00;88.90;;;;;;5063025;28;20025;-69
2021/08/08 02:59:24;;;;;;;54.60;29.58;;;13.00;88.90;;;;;;5058865;28;20059;-70
2021/08/08 03:01:51;;;;;;;52.97;30.50;;;13.00;89.00;;;;;;5061667;28;20017;-70
2021/08/08 03:04:17;;;;;;;56.38;29.58;;;13.00;89.10;;;;;;5060043;28;20077;-69
2021/08/08 03:06:46;;;;;;;46.75;27.00;;;12.90;89.00;;;;;;5061237;28;20029;-69
2021/08/08 03:09:13;;;;;;;49.50;25.60;;;12.80;88.70;;;;;;5059219;28;20020;-69
2021/08/08 03:11:45;;;;;;;44.47;26.77;;;12.80;88.80;;;;;;5060404;28;20029;-69
2021/08/08 03:14:14;;;;;;;46.90;26.60;;;12.90;88.90;;;;;;5059698;28;20025;-69
2021/08/08 03:16:42;;;;;;;46.53;29.25;;;12.80;89.00;;;;;;5057290;28;20033;-69
2021/08/08 03:19:09;;;;;;;52.10;28.00;;;12.80;89.00;;;;;;5061146;28;20028;-70
2021/08/08 03:21:36;;;;;;;42.35;25.70;;;12.80;89.30;;;;;;5059765;28;20021;-70
2021/08/08 03:24:03;;;;;;;36.15;22.15;;;12.80;89.20;;;;;;5060545;28;20095;-70
2021/08/08 03:26:30;;;;;;;30.98;19.23;;;12.80;89.10;;;;;;5056529;28;20105;-71
2021/08/08 03:28:57;;;;;;;34.13;20.42;;;12.70;87.70;;;;;;5060170;28;20029;-69
2021/08/08 03:31:23;;;;;;;38.15;22.52;;;12.60;86.60;;;;;;5056189;28;20502;-70
2021/08/08 03:33:50;;;;;;;41.67;23.83;;;12.50;86.70;;;;;;5056981;28;20044;-70
2021/08/08 03:36:16;;;;;;;36.22;22.85;;;12.40;86.10;;;;;;5057095;28;20033;-70
2021/08/08 03:38:43;;;;;;;41.22;25.35;;;12.30;86.30;;;;;;5061896;28;20021;-72
2021/08/08 03:41:09;;;;;;;38.30;23.40;;;12.20;85.80;;;;;;5057889;28;20017;-71
2021/08/08 03:43:36;;;;;;;34.83;22.27;;;12.10;86.30;;;;;;5057431;28;20024;-71
2021/08/08 03:46:02;;;;;;;29.98;21.13;;;12.00;86.10;;;;;;5063466;28;20017;-71
2021/08/08 03:48:29;;;;;;;31.13;20.95;;;12.00;85.70;;;;;;5057617;28;20108;-71
2021/08/08 03:50:55;;;;;;;28.88;19.55;;;12.00;85.40;;;;;;5054356;28;20121;-71
2021/08/08 03:53:22;;;;;;;31.60;20.17;;;12.00;85.20;;;;;;5052620;28;20036;-72
2021/08/08 03:55:48;;;;;;;31.90;19.85;;;12.00;85.30;;;;;;5056787;28;20032;-68
2021/08/08 03:58:15;;;;;;;24.80;18.15;;;12.10;85.40;;;;;;5053927;28;20371;-71
2021/08/08 04:00:41;;;;;;;26.35;18.95;;;12.10;85.50;;;;;;5059159;28;20101;-70
2021/08/08 04:03:09;;;;;;;29.02;20.83;;;12.10;85.30;;;;;;5059958;28;20072;-71
2021/08/08 04:05:36;;;;;;;29.73;20.73;;;12.10;85.20;;;;;;5057804;28;20041;-70
2021/08/08 04:08:02;;;;;;;34.17;20.63;;;12.10;85.20;;;;;;5055872;28;20107;-72
2021/08/08 04:10:29;;;;;;;33.03;21.40;;;12.10;85.20;;;;;;5055819;28;20029;-72
2021/08/08 04:12:55;;;;;;;35.55;23.35;;;12.10;85.40;;;;;;5064219;28;20070;-69
2021/08/08 04:15:22;;;;;;;31.42;21.17;;;12.10;85.70;;;;;;5054543;28;20596;-71
2021/08/08 04:17:49;;;;;;;38.38;22.23;;;12.10;86.40;;;;;;5054647;28;20025;-71
2021/08/08 04:20:15;;;;;;;34.50;23.35;;;12.10;85.90;;;;;;5057042;28;20029;-70
2021/08/08 04:23:21;;;;;;;35.92;24.02;;;12.20;85.90;;;;;;5057414;28;20021;-71
2021/08/08 04:25:48;;;;;;;33.58;22.80;;;12.20;85.50;;;;;;5057264;28;20021;-71
2021/08/08 04:28:17;;;;;;;33.38;21.27;;;12.10;85.30;;;;;;5056693;28;20383;-71
2021/08/08 04:30:45;;;;;;;33.08;22.23;;;12.10;85.40;;;;;;5056278;28;20490;-71
2021/08/08 04:33:15;;;;;;;31.30;22.23;;;12.10;85.50;;;;;;5057056;28;20028;-71
2021/08/08 04:35:41;;;;;;;31.20;19.50;;;12.10;85.30;;;;;;5054687;28;20068;-71
2021/08/08 04:38:08;;;;;;;33.40;20.00;;;12.10;85.30;;;;;;5055421;28;20183;-71
2021/08/08 04:40:34;;;;;;;26.88;20.63;;;12.10;85.20;;;;;;5057146;28;20036;-70
2021/08/08 04:43:03;;;;;;;26.40;19.60;;;12.10;85.20;;;;;;5061011;28;20024;-70
2021/08/08 04:45:32;;;;;;;26.08;18.27;;;12.00;85.10;;;;;;5053097;28;20021;-71
2021/08/08 04:48:02;;;;;;;28.00;18.77;;;12.00;84.70;;;;;;5056702;28;20025;-71
2021/08/08 04:50:29;;;;;;;25.17;18.45;;;12.00;84.40;;;;;;5054713;28;20529;-71
2021/08/08 04:52:55;;;;;;;26.15;19.27;;;11.90;84.50;;;;;;5051243;28;20555;-70
2021/08/08 04:55:22;;;;;;;26.40;18.80;;;11.90;84.80;;;;;;5057269;28;20049;-70
2021/08/08 04:57:48;;;;;;;21.23;15.98;;;11.90;84.90;;;;;;5062221;28;20028;-70
2021/08/08 05:00:16;;;;;;;24.33;17.20;;;11.90;85.00;;;;;;5052576;28;20099;-70
2021/08/08 05:02:49;;;;;;;21.00;16.25;;;11.90;85.00;;;;;;5054785;28;20130;-71
2021/08/08 05:05:16;;;;;;;31.13;19.73;;;11.90;85.10;;;;;;5061685;28;20017;-71
2021/08/08 05:07:45;;;;;;;29.08;20.02;;;11.90;85.30;;;;;;5052030;28;20028;-71
2021/08/08 05:10:14;;;;;;;103.88;75.57;;;11.90;85.60;;;;;;5056509;28;20028;-71
2021/08/08 05:12:41;;;;;;;35.05;24.85;;;11.90;85.50;;;;;;5059310;28;20581;-69
2021/08/08 05:15:09;;;;;;;23.80;17.42;;;11.80;85.00;;;;;;5053719;28;20095;-69
2021/08/08 05:17:36;;;;;;;21.83;14.90;;;11.80;84.60;;;;;;5060915;28;20452;-70
2021/08/08 05:20:04;;;;;;;20.08;14.85;;;11.80;84.50;;;;;;5055036;28;20103;-69
2021/08/08 05:22:31;;;;;;;21.48;14.80;;;11.70;84.10;;;;;;5057405;28;20016;-70
2021/08/08 05:25:01;;;;;;;21.67;17.00;;;11.70;84.20;;;;;;5059384;28;20070;-69
2021/08/08 05:27:27;;;;;;;19.30;13.93;;;11.60;84.30;;;;;;5051300;28;20033;-70
2021/08/08 05:29:54;;;;;;;23.40;16.83;;;11.60;84.60;;;;;;5057410;28;20510;-71
2021/08/08 05:32:20;;;;;;;28.70;17.98;;;11.50;84.90;;;;;;5053068;28;20091;-71
2021/08/08 05:34:47;;;;;;;27.63;17.00;;;11.60;86.10;;;;;;5047719;28;20091;-70
2021/08/08 05:37:13;;;;;;;27.27;19.00;;;11.50;85.70;;;;;;5045926;28;20504;-70
2021/08/08 05:40:20;;;;;;;29.98;17.88;;;11.50;85.80;;;;;;5046570;28;20033;-68
2021/08/08 05:43:26;;;;;;;27.00;16.52;;;11.50;85.90;;;;;;5049737;28;20005;-73
2021/08/08 05:46:32;;;;;;;25.98;19.08;;;11.60;86.10;;;;;;5044527;28;20028;-71
2021/08/08 05:49:38;;;;;;;119.07;85.03;;;11.60;86.40;;;;;;5047629;28;20541;-68
2021/08/08 05:52:06;;;;;;;30.70;23.70;;;11.60;86.20;;;;;;5047064;28;20488;-72
2021/08/08 05:54:33;;;;;;;27.17;18.38;;;11.60;85.80;;;;;;5046630;28;20065;-69
2021/08/08 05:57:00;;;;;;;23.50;17.42;;;11.70;85.70;;;;;;5049019;28;20096;-69
2021/08/08 05:59:26;;;;;;;18.10;14.20;;;11.70;85.60;;;;;;5043904;28;20041;-68
2021/08/08 06:01:58;;;;;;;18.92;14.18;;;11.70;85.70;;;;;;5050050;28;20028;-70
2021/08/08 06:05:07;;;;;;;18.10;13.75;;;11.60;85.40;;;;;;5043420;28;20488;-69
2021/08/08 06:08:14;;;;;;;15.80;12.20;;;11.60;85.70;;;;;;5045837;28;20071;-69
2021/08/08 06:11:20;;;;;;;16.58;12.80;;;11.60;85.70;;;;;;5045515;28;20496;-69
2021/08/08 06:14:26;;;;;;;16.65;13.35;;;11.60;85.60;;;;;;5040528;28;20017;-67
2021/08/08 06:17:32;;;;;;;17.98;14.30;;;11.60;85.50;;;;;;5036300;28;20033;-70
2021/08/08 06:20:38;;;;;;;16.83;12.77;;;11.60;85.50;;;;;;5038225;28;20040;-71
2021/08/08 06:23:44;;;;;;;39.83;28.52;;;11.60;85.90;;;;;;5035030;28;20020;-70
2021/08/08 06:26:11;;;;;;;21.75;15.93;;;11.70;86.20;;;;;;5034920;28;20022;-69
2021/08/08 06:28:37;;;;;;;15.32;12.82;;;11.70;86.10;;;;;;5036778;28;20025;-71
2021/08/08 06:31:04;;;;;;;17.58;14.07;;;11.80;86.20;;;;;;5037256;28;20060;-70
2021/08/08 06:33:31;;;;;;;26.48;20.75;;;11.80;86.20;;;;;;5033889;28;20017;-71
2021/08/08 06:36:01;;;;;;;26.65;23.73;;;11.80;86.10;;;;;;5050677;28;20123;-70
2021/08/08 06:39:05;;;;;;;26.80;22.40;;;11.80;86.20;;;;;;5041107;28;20040;-70
2021/08/08 06:41:33;;;;;;;23.35;19.92;;;11.80;86.30;;;;;;5056490;28;20549;-70
2021/08/08 06:44:01;;;;;;;25.50;18.90;;;11.90;86.30;;;;;;5041668;28;20496;-70
2021/08/08 06:46:27;;;;;;;21.27;16.90;;;11.90;86.10;;;;;;5040115;28;20094;-69
2021/08/08 06:48:54;;;;;;;21.08;16.00;;;11.90;85.90;;;;;;5042287;28;20483;-69
2021/08/08 06:51:21;;;;;;;19.40;15.25;;;11.90;86.00;;;;;;5041426;28;20480;-69
2021/08/08 06:53:47;;;;;;;21.48;15.30;;;11.90;86.00;;;;;;5041845;28;20399;-67
2021/08/08 06:56:14;;;;;;;21.08;15.13;;;11.90;85.60;;;;;;5041350;28;20144;-68
2021/08/08 06:58:40;;;;;;;21.42;16.23;;;11.90;85.80;;;;;;5038863;28;20025;-68
2021/08/08 07:01:06;;;;;;;19.17;14.35;;;12.00;85.80;;;;;;5034174;28;20040;-70
2021/08/08 07:03:33;;;;;;;21.70;15.27;;;12.00;85.50;;;;;;5036790;28;20385;-68
2021/08/08 07:06:00;;;;;;;35.58;27.52;;;11.90;85.60;;;;;;5051144;28;20025;-66
2021/08/08 07:08:26;;;;;;;33.70;22.83;;;12.00;86.10;;;;;;5033534;28;20028;-68
2021/08/08 07:10:52;;;;;;;22.55;16.08;;;12.00;86.20;;;;;;5038752;28;20063;-72
2021/08/08 07:13:19;;;;;;;21.27;15.48;;;11.90;85.80;;;;;;5036067;28;20044;-69
2021/08/08 07:15:45;;;;;;;22.85;16.33;;;11.90;86.10;;;;;;5040469;28;20521;-70
2021/08/08 07:18:12;;;;;;;27.63;19.45;;;12.00;86.10;;;;;;5037780;28;20566;-71
2021/08/08 07:20:38;;;;;;;29.63;18.27;;;12.00;86.50;;;;;;5041329;28;20024;-66
2021/08/08 07:23:05;;;;;;;23.08;17.17;;;12.00;85.70;;;;;;5066006;28;20079;-69
2021/08/08 07:25:31;;;;;;;26.20;16.73;;;12.10;86.00;;;;;;5061663;28;20541;-70
2021/08/08 07:27:58;;;;;;;25.48;16.88;;;12.10;87.10;;;;;;5060879;28;20028;-67
2021/08/08 07:30:24;;;;;;;19.63;16.33;;;12.10;87.60;;;;;;5059604;28;20029;-66
2021/08/08 07:32:51;;;;;;;21.27;16.90;;;12.20;88.30;;;;;;5058392;28;20118;-67
2021/08/08 07:35:18;;;;;;;27.10;17.83;;;12.30;88.50;;;;;;5059789;28;20051;-66
2021/08/08 07:37:44;;;;;;;28.70;19.23;;;12.40;88.40;;;;;;5060927;28;20115;-70
2021/08/08 07:40:11;;;;;;;43.10;30.10;;;12.50;88.70;;;;;;5058532;28;20474;-70
2021/08/08 07:42:38;;;;;;;278.15;46.17;;;12.50;89.10;;;;;;5059783;28;20008;-69
2021/08/08 07:45:05;;;;;;;149.20;31.17;;;12.60;88.60;;;;;;5063607;28;20422;-70
2021/08/08 07:47:31;;;;;;;32.50;17.58;;;12.60;89.30;;;;;;5061046;28;20024;-70
2021/08/08 07:49:58;;;;;;;20.63;15.77;;;12.60;88.80;;;;;;5062556;28;20083;-70
2021/08/08 07:52:24;;;;;;;21.58;15.55;;;12.60;89.00;;;;;;5060749;28;20037;-72
2021/08/08 07:55:31;;;;;;;22.20;16.77;;;12.70;89.30;;;;;;5059770;28;20233;-72
2021/08/08 07:58:07;;;;;;;19.02;14.75;;;12.80;89.60;;;;;;5061877;28;20988;-72
2021/08/08 08:00:34;;;;;;;51.83;39.90;;;12.90;89.70;;;;;;5058487;28;20021;-71
2021/08/08 08:03:00;;;;;;;34.85;25.80;;;12.90;89.70;;;;;;5059921;28;20028;-71
2021/08/08 08:05:27;;;;;;;59.55;43.08;;;13.00;89.60;;;;;;5060206;28;21843;-72
2021/08/08 08:07:53;;;;;;;31.42;24.50;;;13.00;89.60;;;;;;5062781;28;20095;-72
2021/08/08 08:10:20;;;;;;;23.55;17.52;;;13.10;89.60;;;;;;5061095;28;20480;-69
2021/08/08 08:12:46;;;;;;;27.23;18.17;;;13.10;89.50;;;;;;5065121;28;20123;-70
2021/08/08 08:15:13;;;;;;;33.67;27.02;;;13.20;89.30;;;;;;5060699;28;20362;-70
2021/08/08 08:17:40;;;;;;;48.05;35.67;;;13.30;89.00;;;;;;5060200;28;20048;-69
2021/08/08 08:20:07;;;;;;;26.88;22.05;;;13.30;88.70;;;;;;5064429;28;20472;-71
2021/08/08 08:22:34;;;;;;;26.50;19.55;;;13.40;88.30;;;;;;5059166;28;20021;-69
2021/08/08 08:25:00;;;;;;;31.40;19.52;;;13.40;88.10;;;;;;5062123;28;20095;-72
2021/08/08 08:27:27;;;;;;;41.63;22.73;;;13.40;88.00;;;;;;5060729;28;20017;-71
2021/08/08 08:29:53;;;;;;;31.17;20.08;;;13.50;88.50;;;;;;5062580;28;20051;-72
2021/08/08 08:32:20;;;;;;;30.60;19.23;;;13.50;88.00;;;;;;5060976;28;20075;-71
2021/08/08 08:34:46;;;;;;;28.45;19.58;;;13.50;87.70;;;;;;5061181;28;20028;-70
2021/08/08 08:37:13;;;;;;;34.85;19.77;;;13.50;87.10;;;;;;5058638;28;20035;-71
2021/08/08 08:39:39;;;;;;;24.08;17.30;;;13.50;86.90;;;;;;5044418;28;20032;-71
2021/08/08 08:42:09;;;;;;;28.63;19.30;;;13.50;86.90;;;;;;5039240;28;20017;-72
2021/08/08 08:44:36;;;;;;;27.63;18.85;;;13.40;87.00;;;;;;5041758;28;20036;-71
2021/08/08 08:47:04;;;;;;;26.92;19.70;;;13.40;87.10;;;;;;5043576;28;20373;-73
2021/08/08 08:49:32;;;;;;;22.73;17.08;;;13.50;87.40;;;;;;5040142;28;20018;-73
2021/08/08 08:52:05;;;;;;;23.77;17.77;;;13.50;87.60;;;;;;5043429;28;20017;-72
2021/08/08 08:54:33;;;;;;;229.05;169.73;;;13.50;87.90;;;;;;5042650;28;20071;-71
2021/08/08 08:57:00;;;;;;;118.20;87.82;;;13.50;88.40;;;;;;5040829;28;20112;-72
2021/08/08 08:59:28;;;;;;;31.50;23.17;;;13.50;89.60;;;;;;5038014;28;20021;-70
2021/08/08 09:01:54;;;;;;;19.45;14.52;;;13.60;90.00;;;;;;5038676;28;20028;-73
2021/08/08 09:04:21;;;;;;;17.20;12.52;;;13.70;90.40;;;;;;5040688;28;20511;-72
2021/08/08 09:06:48;;;;;;;18.58;13.40;;;13.90;90.40;;;;;;5042805;28;20017;-71
2021/08/08 09:09:15;;;;;;;15.60;12.73;;;14.00;90.40;;;;;;5041234;28;20079;-72
2021/08/08 09:11:44;;;;;;;15.55;11.77;;;14.10;90.40;;;;;;5043576;28;20509;-74
2021/08/08 09:14:12;;;;;;;14.55;11.27;;;14.30;90.30;;;;;;5041134;28;20026;-76
2021/08/08 09:16:42;;;;;;;13.88;11.13;;;14.30;90.10;;;;;;5040452;28;20037;-73
2021/08/08 09:19:30;;;;;;;13.00;10.77;;;14.40;90.00;;;;;;5040054;28;20005;-74
2021/08/08 09:21:58;;;;;;;11.75;9.77;;;14.50;90.00;;;;;;5059730;28;20025;-74
2021/08/08 09:24:35;;;;;;;13.32;9.98;;;14.50;90.00;;;;;;5063136;28;20072;-73
2021/08/08 09:27:08;;;;;;;9.00;8.15;;;14.50;89.70;;;;;;5058429;28;20048;-73
2021/08/08 09:29:39;;;;;;;11.68;7.90;;;14.50;89.10;;;;;;5057348;28;20547;-73
2021/08/08 09:32:07;;;;;;;7.50;5.70;;;14.60;88.70;;;;;;5053933;28;20032;-72
2021/08/08 09:34:36;;;;;;;10.65;6.40;;;14.60;87.60;;;;;;5059327;28;20023;-74
2021/08/08 09:37:22;;;;;;;8.32;6.10;;;14.60;87.50;;;;;;5056115;28;20041;-74
2021/08/08 09:39:53;;;;;;;6.10;5.18;;;14.60;87.60;;;;;;5057764;28;20108;-73
2021/08/08 09:42:27;;;;;;;6.72;4.50;;;14.60;87.00;;;;;;5056035;28;20025;-75
2021/08/08 09:45:04;;;;;;;5.40;4.63;;;14.70;86.30;;;;;;5054488;28;20390;-72
2021/08/08 09:47:48;;;;;;;6.88;5.90;;;14.70;85.50;;;;;;5036817;28;20415;-73
2021/08/08 09:50:16;;;;;;;7.82;5.22;;;14.70;86.20;;;;;;5032825;28;20082;-74
2021/08/08 09:53:22;;;;;;;6.47;4.80;;;14.70;86.30;;;;;;5038052;28;20426;-74
2021/08/08 09:55:51;;;;;;;3.90;3.60;;;14.70;85.80;;;;;;5038732;28;20099;-74
2021/08/08 09:58:24;;;;;;;4.35;3.08;;;14.80;84.70;;;;;;5044336;28;20050;-73
2021/08/08 10:01:30;;;;;;;8.38;3.85;;;14.90;84.40;;;;;;5040409;28;20109;-73
2021/08/08 10:04:36;;;;;;;4.65;4.10;;;15.10;83.80;;;;;;5042349;28;20021;-76
2021/08/08 10:07:04;;;;;;;7.97;3.42;;;15.30;84.00;;;;;;5038044;28;20111;-74
2021/08/08 10:09:31;;;;;;;7.82;3.35;;;15.50;83.50;;;;;;5041130;28;20025;-72
2021/08/08 10:12:07;;;;;;;5.82;3.35;;;15.60;82.30;;;;;;5052545;28;20024;-72
2021/08/08 10:14:34;;;;;;;6.68;3.33;;;15.70;82.20;;;;;;5060000;28;20047;-73
2021/08/08 10:17:01;;;;;;;4.00;3.55;;;15.80;81.40;;;;;;5060652;28;20025;-70
2021/08/08 10:19:28;;;;;;;4.38;3.92;;;16.00;80.90;;;;;;5051568;28;20021;-71
2021/08/08 10:21:54;;;;;;;6.00;3.47;;;16.00;80.70;;;;;;5059470;28;20039;-71
2021/08/08 10:24:24;;;;;;;6.18;3.75;;;16.10;81.10;;;;;;5056185;28;20123;-73
2021/08/08 10:26:51;;;;;;;4.43;3.78;;;16.10;81.30;;;;;;5060873;28;20013;-72
2021/08/08 10:29:21;;;;;;;4.88;3.33;;;16.00;79.80;;;;;;5050624;28;20028;-72
2021/08/08 10:31:50;;;;;;;330.63;258.38;;;15.90;80.00;;;;;;5053625;28;20664;-73
2021/08/08 10:34:16;;;;;;;58.00;50.38;;;15.90;80.30;;;;;;5050974;28;20492;-73
2021/08/08 10:36:43;;;;;;;8.05;4.43;;;15.90;80.20;;;;;;5055562;28;20136;-71
2021/08/08 10:39:15;;;;;;;5.75;3.70;;;15.80;80.10;;;;;;5056623;28;20025;-72
2021/08/08 10:41:56;;;;;;;6.47;3.38;;;15.80;80.70;;;;;;5054664;28;20379;-73
2021/08/08 10:44:22;;;;;;;5.90;3.38;;;15.80;81.40;;;;;;5054039;28;20021;-73
2021/08/08 10:46:51;;;;;;;6.90;3.22;;;15.70;81.20;;;;;;5060339;28;20021;-74
2021/08/08 10:49:32;;;;;;;7.68;3.50;;;15.70;81.00;;;;;;5055676;28;20028;-75
2021/08/08 10:52:04;;;;;;;4.35;3.40;;;15.60;81.70;;;;;;5058321;28;20078;-72
2021/08/08 10:54:46;;;;;;;6.32;3.22;;;15.60;82.30;;;;;;5057326;28;20052;-74
2021/08/08 10:57:14;;;;;;;5.78;3.72;;;15.60;82.40;;;;;;5056587;28;20033;-75
2021/08/08 10:59:52;;;;;;;8.00;3.22;;;15.60;82.40;;;;;;5052518;28;20468;-71
2021/08/08 11:02:28;;;;;;;7.07;3.53;;;15.60;82.30;;;;;;5052082;28;20408;-69
2021/08/08 11:04:55;;;;;;;6.00;3.40;;;15.60;82.00;;;;;;5052457;28;20372;-69
2021/08/08 11:07:29;;;;;;;9.65;3.75;;;15.60;82.10;;;;;;5048995;28;20021;-77
2021/08/08 11:09:56;;;;;;;7.35;3.38;;;15.60;82.30;;;;;;5050361;28;20032;-73
2021/08/08 11:12:37;;;;;;;16.25;4.82;;;15.60;81.90;;;;;;5050107;28;20083;-76
2021/08/08 11:15:09;;;;;;;225.55;183.55;;;15.60;81.50;;;;;;5048767;28;20113;-75
2021/08/08 11:17:36;;;;;;;11.32;8.57;;;15.70;81.70;;;;;;5049101;28;20104;-73
2021/08/08 11:20:05;;;;;;;6.80;3.08;;;15.80;81.30;;;;;;5057021;28;20034;-71
2021/08/08 11:22:31;;;;;;;5.65;3.25;;;15.80;81.10;;;;;;5045555;28;20013;-75
2021/08/08 11:25:04;;;;;;;7.45;2.95;;;15.90;80.20;;;;;;5045105;28;20021;-71
2021/08/08 11:27:41;;;;;;;8.68;3.65;;;15.90;79.50;;;;;;5048534;28;20075;-71
2021/08/08 11:30:11;;;;;;;3.38;2.92;;;15.90;79.20;;;;;;5040879;28;20052;-75
2021/08/08 11:32:38;;;;;;;8.60;3.67;;;15.90;79.70;;;;;;5045698;28;20618;-74
2021/08/08 11:35:07;;;;;;;10.35;3.13;;;15.90;80.20;;;;;;5048602;28;20472;-73
2021/08/08 11:37:37;;;;;;;6.20;2.97;;;15.90;80.30;;;;;;5049992;28;20033;-77
2021/08/08 11:40:19;;;;;;;7.03;3.58;;;15.90;80.90;;;;;;5046992;28;20070;-75
2021/08/08 11:42:46;;;;;;;5.53;3.28;;;15.90;81.60;;;;;;5046558;28;20049;-73
2021/08/08 11:45:13;;;;;;;7.80;3.53;;;15.80;82.10;;;;;;5047537;28;20044;-78
2021/08/08 11:47:40;;;;;;;10.85;4.18;;;15.80;82.40;;;;;;5047274;28;20013;-75
2021/08/08 11:50:07;;;;;;;8.30;4.20;;;15.80;82.90;;;;;;5047591;28;20024;-73
2021/08/08 11:52:35;;;;;;;9.35;4.22;;;15.80;83.00;;;;;;5046974;28;20017;-72
2021/08/08 11:55:05;;;;;;;13.38;4.82;;;15.80;82.40;;;;;;5044887;28;20040;-73
2021/08/08 11:57:33;;;;;;;4.85;3.60;;;15.80;82.40;;;;;;5046728;28;20064;-72
2021/08/08 12:00:00;;;;;;;7.88;4.28;;;15.80;82.30;;;;;;5040418;28;20074;-72
2021/08/08 12:02:29;;;;;;;12.75;6.45;;;15.80;82.40;;;;;;5045895;28;20028;-74
2021/08/08 12:04:57;;;;;;;8.05;5.40;;;15.80;82.80;;;;;;5044200;28;20033;-76
2021/08/08 12:07:25;;;;;;;14.40;4.82;;;15.80;82.70;;;;;;5043557;28;20049;-78
2021/08/08 12:09:53;;;;;;;7.55;4.28;;;15.80;83.00;;;;;;5046432;28;20024;-76
2021/08/08 12:12:20;;;;;;;220.27;196.02;;;15.80;82.50;;;;;;5044375;28;20783;-75
2021/08/08 12:14:56;;;;;;;14.30;10.07;;;15.80;82.30;;;;;;5044871;28;20022;-71
2021/08/08 12:17:23;;;;;;;11.35;4.63;;;15.80;82.10;;;;;;5045350;28;20032;-71
2021/08/08 12:19:57;;;;;;;6.10;4.30;;;15.80;81.90;;;;;;5044925;28;20546;-71
2021/08/08 12:22:29;;;;;;;9.30;5.37;;;15.80;80.70;;;;;;5045048;28;20029;-71
2021/08/08 12:25:06;;;;;;;4.25;3.40;;;15.80;81.10;;;;;;5046400;28;20961;-77
2021/08/08 12:27:36;;;;;;;9.00;3.28;;;15.80;80.70;;;;;;5044997;28;20025;-77
2021/08/08 12:30:07;;;;;;;9.05;3.58;;;15.80;80.10;;;;;;5044478;28;20069;-77
2021/08/08 12:32:37;;;;;;;5.20;3.17;;;15.80;80.10;;;;;;5048524;28;20029;-76
2021/08/08 12:35:12;;;;;;;7.28;3.22;;;15.80;80.20;;;;;;5045942;28;20043;-75
2021/08/08 12:37:41;;;;;;;5.60;3.08;;;15.90;80.10;;;;;;5043809;28;20021;-77
2021/08/08 12:40:13;;;;;;;10.45;3.00;;;15.90;80.00;;;;;;5045415;28;20021;-77
2021/08/08 12:42:41;;;;;;;7.40;3.92;;;15.90;79.90;;;;;;5041688;28;20028;-72
2021/08/08 12:45:18;;;;;;;9.18;3.88;;;16.00;79.90;;;;;;5042389;28;20017;-74
2021/08/08 12:47:57;;;;;;;122.95;92.00;;;16.00;80.00;;;;;;5039929;28;20096;-74
2021/08/08 12:50:24;;;;;;;16.02;9.98;;;16.00;79.20;;;;;;5046463;28;20025;-74
2021/08/08 12:52:52;;;;;;;6.88;2.72;;;16.00;77.80;;;;;;5051495;28;20020;-74